CheckWX is a tool to help pilots better visualize weather data.  It is not intended as a substitute for an official pre-flight weather briefing.

13:17:11 UTC

KSGT METAR
Stuttgart Municipal Carl Humphrey Field Airport
Stuttgart, Arkansas, USA
Current

21 mins ago

KSGT 051256Z AUTO 04008KT 10SM CLR 12/10 A3012 RMK AO2 SLP199 T01220100
Observed
Apr-5 @ 12:56 UTC
Wind
  • 040° at 8 KTS
Visibility
Flight Rules
VFR
Cloud Levels
  • Clear skies
Temperature
12°C / 54°F
Dewpoint
10°C / 50°F
Humidity
88%
Altimeter
30.12" Hg
Pressure
1020.02 hPa
Previous

1 hour ago

KSGT 051156Z AUTO 04005KT 10SM CLR 11/09 A3010 RMK AO2 SLP192 T01060094 10117 20100 53014
Observed
Apr-5 @ 11:56 UTC
Wind
  • 040° at 5 KTS
Visibility
Flight Rules
VFR
Cloud Levels
  • Clear skies
Temperature
11°C / 52°F
Dewpoint
C / 48°F
Humidity
88%
Altimeter
30.1" Hg
Pressure
1019.32 hPa
Previous

2 hours ago

KSGT 051056Z AUTO 03007KT 10SM CLR 11/09 A3008 RMK AO2 SLP185 T01060094
Observed
Apr-5 @ 10:56 UTC
Wind
  • 030° at 7 KTS
Visibility
Flight Rules
VFR
Cloud Levels
  • Clear skies
Temperature
11°C / 52°F
Dewpoint
C / 48°F
Humidity
88%
Altimeter
30.08" Hg
Pressure
1018.62 hPa